METAR UND TAF INFORMATION

METAR FOR LATI
ADDS - METARS form results

(0505 UTC 26 June 2022)
Data provider http://aviationweather.gov/metar/data/
 
METAR text: LATI 260450Z VRB02KT 6000 SCT017 23/21 Q1015 BECMG FM0500 CAVOK
Conditions at: LATI (TIRANA , AL) observed 0450 UTC 26 June 2022
Temperature: 23.0°C (73°F)
Dewpoint: 21.0°C (70°F) [RH = 89%]
Pressure (altimeter): 29.97 inches Hg (1015.0 mb)
Winds: variable direction winds at 2 MPH (2 knots; 1.0 m/s)
Visibility: 4 miles ( 6 km)
Ceiling: at least 12,000 feet AGL
Clouds: scattered clouds at 1700 feet AGL
Weather: no significant weather observed at this time

METAR text: LATI 260420Z VRB02KT 2100 BR FEW003 OVC017 23/21 Q1015 BECMG FM0500 CAVOK
Conditions at: LATI (TIRANA , AL) observed 0420 UTC 26 June 2022
Temperature: 23.0°C (73°F)
Dewpoint: 21.0°C (70°F) [RH = 89%]
Pressure (altimeter): 29.97 inches Hg (1015.0 mb)
Winds: variable direction winds at 2 MPH (2 knots; 1.0 m/s)
Visibility: 1.30 miles (2.09 km)
Ceiling: 1700 feet AGL
Clouds: few clouds at 300 feet AGL
overcast cloud deck at 1700 feet AGL
Weather: BR  (mist)

Forecast for: LATI (TIRANA , AL)
Text: TAF LATI 260500Z 2606/2706 VRB03KT CAVOK TX34/2612Z TN20/2703Z
Forecast period: 0600 to 1100 UTC 26 June 2022
Forecast type: FROM: standard forecast or significant change
Winds: variable direction winds at 3 MPH (3 knots; 1.5 m/s)
Visibility: 6 or more miles (10+ km)
Ceiling: unknown
Clouds: missing
Weather: no significant weather forecast for this period
Text: BECMG 2611/2613 33013KT
Forecast period: 1100 to 1600 UTC 26 June 2022
Forecast type: BECOMING: Conditions expected to become as follows by 1300 UTC 26 June 2022
Winds: from the NNW (330 degrees) at 15 MPH (13 knots; 6.7 m/s)
Visibility: 6 or more miles (10+ km)
Ceiling: unknown
Clouds: missing
Weather: no significant weather forecast for this period
Text: BECMG 2616/2618 VRB03KT
Forecast period: 1600 UTC 26 June 2022 to 0600 UTC 27 June 2022
Forecast type: BECOMING: Conditions expected to become as follows by 1800 UTC 26 June 2022
Winds: variable direction winds at 3 MPH (3 knots; 1.5 m/s)
Visibility: 6 or more miles (10+ km)
Ceiling: unknown
Clouds: missing
Weather: no significant weather forecast for this period

 FLUGHAFENKARTE

 RUNWAY INFORMATION
Runway 18 Runway length 8971 ft Runway width 148 ft
Runway elevation 109 ft Runway displaced threshold 0 ft Runway heading 174
Runway 36 Runway length 8971 ft Runway width 148 ft
Runway elevation 126 ft Runway displaced threshold 0 ft Runway heading 354

 AIRPORT FREQUENCIES
Type ACC Name ACC Frequency 127.5 MHZ
Type APP Name APP Frequency 133.15 MHZ
Type TWR Name TWR Frequency 122.5 MHZ

 AIRPORT NEAR NAVIGATION AIDS
Type NDB Name Tirana Frequency 290 KHZ
Type VOR-DME Name Tirana Frequency 117700 KHZ